CheckWX is a tool to help pilots better visualize weather data.  It is not intended as a substitute for an official pre-flight weather briefing.

13:56:12 UTC

1H2 METAR
Effingham County Memorial Airport
Effingham, Illinois, USA
Current

21 mins ago

K1H2 261335Z AUTO 29013G22KT 10SM CLR 13/07 A2990 RMK AO2 T01250073
Observed
Apr-26 @ 13:35 UTC
Wind
  • 290° at 13 KTS
  • Gusting to 22 KTS
Visibility
10 SM
Flight Rules
VFR
Cloud Levels
  • Clear skies
Temperature
13°C / 55°F
Dewpoint
C / 45°F
Humidity
67%
Altimeter
29.9" Hg
Pressure
1012.52 hPa
Previous

41 mins ago

K1H2 261315Z AUTO 29013KT 10SM CLR 12/08 A2989 RMK AO2 T01200075
Observed
Apr-26 @ 13:15 UTC
Wind
  • 290° at 13 KTS
Visibility
10 SM
Flight Rules
VFR
Cloud Levels
  • Clear skies
Temperature
12°C / 54°F
Dewpoint
C / 46°F
Humidity
77%
Altimeter
29.89" Hg
Pressure
1012.22 hPa
Previous

1 hour ago

K1H2 261255Z AUTO 28011G17KT 10SM CLR 11/08 A2989 RMK AO2 T01110083
Observed
Apr-26 @ 12:55 UTC
Wind
  • 280° at 11 KTS
  • Gusting to 17 KTS
Visibility
10 SM
Flight Rules
VFR
Cloud Levels
  • Clear skies
Temperature
11°C / 52°F
Dewpoint
C / 46°F
Humidity
82%
Altimeter
29.89" Hg
Pressure
1012.22 hPa